Time;durP1;ratioP1;P1;durP2;ratioP2;P2;SDS_P1;SDS_P2;PMS_P1;PMS_P2;Temp;Humidity;BMP_temperature;BMP_pressure;BME280_temperature;BME280_humidity;BME280_pressure;Samples;Min_cycle;Max_cycle;Signal;HPM_P1;HPM_P2
2021/12/23 00:23:21;;;;;;;15.25;11.20;;;;;;;;;;4804103;27;20254;-68
2021/12/23 00:25:19;;;;;;;13.65;11.77;;;;;;;;;;4286872;33;20123;-72
2021/12/23 00:27:46;;;;;;;14.30;12.27;;;;;;;;;;4276417;33;20151;-69
2021/12/23 00:30:12;;;;;;;17.55;12.95;;;;;;;;;;4283727;33;20076;-73
2021/12/23 00:32:38;;;;;;;16.08;12.73;;;;;;;;;;4265517;33;20213;-73
2021/12/23 00:35:05;;;;;;;20.73;14.48;;;;;;;;;;4277555;33;20115;-73
2021/12/23 00:37:41;;;;;;;16.35;12.43;;;;;;;;;;4290401;33;20112;-74
2021/12/23 00:40:12;;;;;;;15.90;12.27;;;;;;;;;;4262994;33;20182;-74
2021/12/23 00:42:39;;;;;;;17.27;11.75;;;;;;;;;;4276198;33;20107;-68
2021/12/23 00:45:05;;;;;;;12.23;10.63;;;;;;;;;;4276027;33;20126;-68
2021/12/23 00:47:32;;;;;;;13.27;11.43;;;;;;;;;;4276156;33;20186;-69
2021/12/23 00:49:58;;;;;;;14.30;11.43;;;;;;;;;;4275990;33;20122;-68
2021/12/23 00:52:43;;;;;;;13.40;11.12;;;;;;;;;;4276140;33;20104;-69
2021/12/23 00:55:11;;;;;;;14.40;11.18;;;;;;;;;;4279725;33;20116;-67
2021/12/23 00:57:40;;;;;;;12.70;10.55;;;;;;;;;;4277266;33;20528;-68
2021/12/23 01:00:09;;;;;;;14.13;11.10;;;;;;;;;;4277293;33;20090;-69
2021/12/23 01:02:35;;;;;;;14.02;9.90;;;;;;;;;;4277285;33;20115;-68
2021/12/23 01:05:02;;;;;;;12.85;9.77;;;;;;;;;;4290300;33;20294;-68
2021/12/23 01:07:28;;;;;;;13.65;10.48;;;;;;;;;;4276990;33;20091;-68
2021/12/23 01:09:54;;;;;;;15.55;9.93;;;;;;;;;;4276982;33;20087;-69
2021/12/23 01:12:26;;;;;;;12.07;9.13;;;;;;;;;;4277047;33;20533;-69
2021/12/23 01:19:51;;;;;;;11.90;8.52;;;;;;;;;;4265107;33;20127;-68
2021/12/23 01:22:18;;;;;;;11.05;8.73;;;;;;;;;;4276968;33;20201;-72
2021/12/23 01:24:44;;;;;;;10.10;7.87;;;;;;;;;;4276986;33;20096;-72
2021/12/23 01:27:10;;;;;;;10.52;7.87;;;;;;;;;;4290187;33;20895;-72
2021/12/23 01:29:37;;;;;;;10.25;8.20;;;;;;;;;;4276792;33;20111;-73
2021/12/23 01:32:05;;;;;;;9.90;8.38;;;;;;;;;;4290124;33;20092;-73
2021/12/23 01:34:33;;;;;;;9.68;7.90;;;;;;;;;;4290140;33;20520;-72
2021/12/23 01:37:00;;;;;;;10.27;7.75;;;;;;;;;;4290597;33;20120;-71
2021/12/23 01:39:27;;;;;;;10.98;8.95;;;;;;;;;;4290194;33;20474;-67
2021/12/23 01:41:53;;;;;;;9.85;7.85;;;;;;;;;;4277104;33;20126;-69
2021/12/23 01:44:19;;;;;;;10.32;7.85;;;;;;;;;;4289139;33;20494;-69
2021/12/23 01:46:45;;;;;;;10.50;8.02;;;;;;;;;;4276592;33;20218;-67
2021/12/23 01:49:11;;;;;;;9.65;7.62;;;;;;;;;;4282713;33;20187;-68
2021/12/23 01:51:38;;;;;;;9.48;8.00;;;;;;;;;;4276819;33;20171;-68
2021/12/23 01:54:04;;;;;;;10.27;8.23;;;;;;;;;;4288311;33;20094;-69
2021/12/23 01:56:30;;;;;;;10.18;8.30;;;;;;;;;;4284650;33;20215;-68
2021/12/23 01:58:56;;;;;;;9.88;8.20;;;;;;;;;;4275467;33;20096;-69
2021/12/23 02:01:22;;;;;;;10.32;7.70;;;;;;;;;;4275500;33;20534;-69
2021/12/23 02:03:49;;;;;;;8.90;7.43;;;;;;;;;;4275394;33;20519;-69
2021/12/23 02:06:15;;;;;;;9.65;7.53;;;;;;;;;;4262390;33;20121;-69
2021/12/23 02:08:41;;;;;;;9.60;7.90;;;;;;;;;;4262055;33;20186;-69
2021/12/23 02:11:09;;;;;;;9.63;7.10;;;;;;;;;;4275293;33;20131;-69
2021/12/23 02:13:35;;;;;;;9.25;6.93;;;;;;;;;;4262096;33;20411;-68
2021/12/23 02:16:02;;;;;;;9.20;7.47;;;;;;;;;;4261776;33;20595;-69
2021/12/23 02:18:28;;;;;;;10.75;7.28;;;;;;;;;;4250359;33;20113;-69
2021/12/23 02:20:58;;;;;;;8.55;7.47;;;;;;;;;;4261745;33;20104;-69
2021/12/23 02:23:35;;;;;;;10.60;6.80;;;;;;;;;;4269952;33;20099;-68
2021/12/23 02:26:01;;;;;;;8.57;6.72;;;;;;;;;;4277027;33;20122;-68
2021/12/23 02:28:28;;;;;;;11.25;7.85;;;;;;;;;;4276216;33;20549;-69
2021/12/23 02:30:57;;;;;;;9.60;7.05;;;;;;;;;;4275927;33;20624;-68
2021/12/23 02:33:34;;;;;;;9.65;6.93;;;;;;;;;;4275472;33;20088;-68
2021/12/23 02:36:00;;;;;;;11.07;6.65;;;;;;;;;;4276683;33;20108;-69
2021/12/23 02:38:26;;;;;;;8.70;6.82;;;;;;;;;;4276230;33;20111;-69
2021/12/23 02:44:15;;;;;;;7.85;6.80;;;;;;;;;;4284614;33;20123;-68
2021/12/23 02:46:42;;;;;;;7.90;6.47;;;;;;;;;;4276175;33;20555;-68
2021/12/23 02:49:08;;;;;;;8.73;6.57;;;;;;;;;;4276316;33;20115;-67
2021/12/23 02:51:34;;;;;;;9.90;7.43;;;;;;;;;;4289466;33;20111;-68
2021/12/23 02:54:00;;;;;;;10.20;7.05;;;;;;;;;;4276134;33;20115;-68
2021/12/23 02:56:26;;;;;;;7.30;6.28;;;;;;;;;;4287848;33;20781;-68
2021/12/23 02:58:52;;;;;;;10.23;6.87;;;;;;;;;;4289516;33;20211;-69
2021/12/23 03:01:20;;;;;;;9.40;7.12;;;;;;;;;;4275868;33;20092;-69
2021/12/23 03:03:46;;;;;;;9.48;6.72;;;;;;;;;;4289529;33;20152;-68
2021/12/23 03:06:13;;;;;;;12.15;7.60;;;;;;;;;;4273670;33;20198;-69
2021/12/23 03:08:45;;;;;;;9.63;6.82;;;;;;;;;;4286313;33;20187;-68
2021/12/23 03:11:13;;;;;;;8.20;6.60;;;;;;;;;;4276173;33;20134;-69
2021/12/23 03:13:40;;;;;;;8.32;6.57;;;;;;;;;;4275643;33;20105;-69
2021/12/23 03:16:07;;;;;;;7.18;5.72;;;;;;;;;;4275766;33;20107;-68
2021/12/23 03:18:33;;;;;;;8.32;6.37;;;;;;;;;;4276084;33;20088;-69
2021/12/23 03:20:59;;;;;;;7.75;6.32;;;;;;;;;;4275596;33;20107;-69
2021/12/23 03:23:26;;;;;;;6.55;5.82;;;;;;;;;;4276032;33;20127;-69
2021/12/23 03:25:52;;;;;;;8.18;6.57;;;;;;;;;;4275578;33;20111;-69
2021/12/23 03:28:19;;;;;;;9.25;6.43;;;;;;;;;;4288896;33;20223;-67
2021/12/23 03:30:46;;;;;;;7.78;6.40;;;;;;;;;;4275399;33;20103;-68
2021/12/23 03:33:12;;;;;;;7.78;6.25;;;;;;;;;;4281619;33;20203;-70
2021/12/23 03:35:38;;;;;;;8.18;6.75;;;;;;;;;;4288758;33;20155;-68
2021/12/23 03:38:05;;;;;;;7.95;6.00;;;;;;;;;;4288760;33;20182;-69
2021/12/23 03:40:31;;;;;;;8.23;6.40;;;;;;;;;;4274059;33;20119;-66
2021/12/23 03:42:57;;;;;;;7.32;6.00;;;;;;;;;;4287389;33;20440;-66
2021/12/23 03:45:23;;;;;;;8.20;6.90;;;;;;;;;;4287726;33;20111;-65
2021/12/23 03:47:50;;;;;;;10.73;6.37;;;;;;;;;;4288745;33;20199;-67
2021/12/23 03:50:18;;;;;;;9.02;6.65;;;;;;;;;;4287299;33;20107;-74
2021/12/23 03:52:45;;;;;;;6.32;5.72;;;;;;;;;;4275228;33;20126;-71
2021/12/23 03:55:12;;;;;;;9.07;6.30;;;;;;;;;;4287121;33;20139;-70
2021/12/23 03:57:38;;;;;;;7.78;6.18;;;;;;;;;;4275164;33;20089;-70
2021/12/23 04:00:07;;;;;;;8.98;6.47;;;;;;;;;;4288584;33;20080;-68
2021/12/23 04:02:33;;;;;;;8.30;6.32;;;;;;;;;;4287021;33;20146;-68
2021/12/23 04:04:59;;;;;;;8.20;6.18;;;;;;;;;;4275331;33;20103;-73
2021/12/23 04:07:26;;;;;;;11.90;6.78;;;;;;;;;;4275363;33;20115;-68
2021/12/23 04:09:52;;;;;;;8.80;6.93;;;;;;;;;;4275282;33;20096;-69
2021/12/23 04:12:18;;;;;;;8.73;6.25;;;;;;;;;;4288323;33;20198;-70
2021/12/23 04:14:44;;;;;;;7.55;6.15;;;;;;;;;;4288359;33;20629;-69
2021/12/23 04:17:10;;;;;;;8.60;6.57;;;;;;;;;;4275001;33;20575;-66
2021/12/23 04:19:36;;;;;;;8.70;6.87;;;;;;;;;;4263122;33;20498;-68
2021/12/23 04:22:02;;;;;;;7.32;6.12;;;;;;;;;;4286822;33;20430;-67
2021/12/23 04:24:28;;;;;;;8.95;6.72;;;;;;;;;;4288263;33;20226;-67
2021/12/23 04:26:54;;;;;;;9.70;6.65;;;;;;;;;;4274666;33;20496;-65
2021/12/23 04:29:20;;;;;;;8.85;6.60;;;;;;;;;;4274883;33;20091;-64
2021/12/23 04:31:46;;;;;;;8.05;6.72;;;;;;;;;;4287972;33;20096;-66
2021/12/23 04:34:13;;;;;;;8.55;6.30;;;;;;;;;;4274962;33;20199;-66
2021/12/23 04:36:39;;;;;;;9.02;6.45;;;;;;;;;;4288125;33;20198;-64
2021/12/23 04:39:05;;;;;;;9.65;7.15;;;;;;;;;;4288071;33;20099;-64
2021/12/23 04:41:32;;;;;;;7.82;5.95;;;;;;;;;;4275037;33;20103;-64
2021/12/23 04:43:58;;;;;;;9.30;6.07;;;;;;;;;;4274942;33;20215;-66
2021/12/23 04:46:24;;;;;;;6.62;5.60;;;;;;;;;;4288285;33;20462;-66
2021/12/23 04:48:51;;;;;;;7.15;5.97;;;;;;;;;;4288149;33;20126;-66
2021/12/23 04:51:18;;;;;;;9.23;7.10;;;;;;;;;;4287813;33;20110;-66
2021/12/23 04:53:45;;;;;;;11.48;7.70;;;;;;;;;;4287941;33;20287;-65
2021/12/23 04:56:13;;;;;;;10.02;7.47;;;;;;;;;;4288244;33;20118;-65
2021/12/23 04:58:40;;;;;;;11.40;8.35;;;;;;;;;;4277087;33;20519;-66
2021/12/23 05:01:09;;;;;;;11.30;8.07;;;;;;;;;;4276723;33;20101;-66
2021/12/23 05:03:35;;;;;;;10.35;7.85;;;;;;;;;;4290275;33;20091;-68
2021/12/23 05:06:01;;;;;;;10.60;8.05;;;;;;;;;;4277154;33;20767;-67
2021/12/23 05:08:27;;;;;;;9.15;8.05;;;;;;;;;;4290425;33;20515;-67
2021/12/23 05:10:53;;;;;;;10.57;8.48;;;;;;;;;;4290209;33;20088;-67
2021/12/23 05:13:19;;;;;;;10.73;8.07;;;;;;;;;;4290195;33;20092;-68
2021/12/23 05:15:45;;;;;;;11.73;9.02;;;;;;;;;;4290018;33;20506;-67
2021/12/23 05:18:11;;;;;;;13.85;10.45;;;;;;;;;;4290028;33;20210;-67
2021/12/23 05:20:37;;;;;;;11.48;9.52;;;;;;;;;;4289991;33;20514;-65
2021/12/23 05:23:04;;;;;;;13.80;10.57;;;;;;;;;;4288574;33;20120;-66
2021/12/23 05:25:30;;;;;;;11.07;9.10;;;;;;;;;;4276975;33;20099;-65
2021/12/23 05:27:58;;;;;;;12.90;9.73;;;;;;;;;;4289832;33;20122;-67
2021/12/23 05:30:25;;;;;;;10.40;9.07;;;;;;;;;;4289876;33;20102;-66
2021/12/23 05:32:51;;;;;;;12.55;8.63;;;;;;;;;;4276555;33;20127;-66
2021/12/23 05:35:19;;;;;;;10.63;8.52;;;;;;;;;;4289857;33;20520;-65
2021/12/23 05:37:46;;;;;;;10.98;9.27;;;;;;;;;;4276447;33;20126;-66
2021/12/23 05:40:14;;;;;;;9.25;7.62;;;;;;;;;;4284134;33;20096;-67
2021/12/23 05:42:40;;;;;;;10.68;7.70;;;;;;;;;;4289668;33;20108;-66
2021/12/23 05:45:07;;;;;;;10.35;7.97;;;;;;;;;;4276507;33;20096;-66
2021/12/23 05:47:33;;;;;;;10.18;7.80;;;;;;;;;;4288556;33;20095;-67
2021/12/23 05:49:59;;;;;;;10.73;8.07;;;;;;;;;;4276631;33;20188;-67
2021/12/23 05:52:25;;;;;;;11.38;7.78;;;;;;;;;;4289636;33;20100;-66
2021/12/23 05:54:51;;;;;;;12.05;8.63;;;;;;;;;;4289661;33;20103;-66
2021/12/23 05:57:17;;;;;;;9.88;8.20;;;;;;;;;;4276156;33;20127;-67
2021/12/23 05:59:44;;;;;;;11.93;8.50;;;;;;;;;;4289768;33;20134;-66
2021/12/23 06:02:10;;;;;;;12.02;9.15;;;;;;;;;;4289551;33;20112;-67
2021/12/23 06:04:36;;;;;;;12.13;10.02;;;;;;;;;;4289770;33;20108;-67
2021/12/23 06:07:03;;;;;;;13.05;10.70;;;;;;;;;;4287975;33;20084;-67
2021/12/23 06:09:29;;;;;;;13.52;10.57;;;;;;;;;;4276495;33;20116;-67
2021/12/23 06:11:55;;;;;;;18.02;12.60;;;;;;;;;;4287948;33;20087;-67
2021/12/23 06:14:22;;;;;;;16.02;12.95;;;;;;;;;;4276486;33;20878;-67
2021/12/23 06:16:48;;;;;;;17.08;12.40;;;;;;;;;;4289434;33;20115;-67
2021/12/23 06:19:14;;;;;;;22.05;15.02;;;;;;;;;;4289906;33;20574;-67
2021/12/23 06:21:40;;;;;;;25.30;17.77;;;;;;;;;;4289418;33;20203;-68
2021/12/23 06:24:06;;;;;;;25.23;17.67;;;;;;;;;;4289561;33;20104;-67
2021/12/23 06:26:33;;;;;;;29.90;20.75;;;;;;;;;;4276299;33;20123;-68
2021/12/23 06:28:59;;;;;;;28.10;20.08;;;;;;;;;;4276266;33;20139;-67
2021/12/23 06:31:26;;;;;;;24.37;19.75;;;;;;;;;;4289520;33;20115;-67
2021/12/23 06:33:52;;;;;;;28.70;19.55;;;;;;;;;;4287698;33;20194;-67
2021/12/23 06:36:18;;;;;;;22.42;17.83;;;;;;;;;;4289402;33;20527;-67
2021/12/23 06:38:45;;;;;;;22.10;16.00;;;;;;;;;;4276152;33;20213;-66
2021/12/23 06:41:12;;;;;;;18.35;15.57;;;;;;;;;;4288134;33;20116;-67
2021/12/23 06:43:38;;;;;;;18.40;15.05;;;;;;;;;;4274037;33;20459;-66
2021/12/23 06:46:05;;;;;;;15.60;13.02;;;;;;;;;;4289353;33;20128;-65
2021/12/23 06:48:32;;;;;;;17.33;12.25;;;;;;;;;;4288081;33;20128;-66
2021/12/23 06:50:59;;;;;;;16.62;12.60;;;;;;;;;;4275793;33;20628;-66
2021/12/23 06:53:26;;;;;;;17.42;11.98;;;;;;;;;;4289280;33;20182;-66
2021/12/23 06:55:52;;;;;;;18.12;12.02;;;;;;;;;;4289266;33;20237;-66
2021/12/23 06:58:19;;;;;;;15.23;12.10;;;;;;;;;;4289303;33;20550;-66
2021/12/23 07:00:46;;;;;;;16.00;11.75;;;;;;;;;;4275726;33;20210;-66
2021/12/23 07:03:12;;;;;;;16.37;11.52;;;;;;;;;;4269823;33;20103;-66
2021/12/23 07:05:38;;;;;;;15.13;11.73;;;;;;;;;;4289097;33;20439;-66
2021/12/23 07:10:31;;;;;;;13.90;10.82;;;;;;;;;;4289034;33;20115;-65
2021/12/23 07:12:58;;;;;;;17.05;10.52;;;;;;;;;;4288940;33;20134;-67
2021/12/23 07:15:25;;;;;;;15.55;10.68;;;;;;;;;;4288989;33;20558;-67
2021/12/23 07:17:52;;;;;;;13.82;10.25;;;;;;;;;;4288945;33;20170;-66
2021/12/23 07:20:18;;;;;;;12.98;9.02;;;;;;;;;;4275169;33;20459;-67
2021/12/23 07:22:45;;;;;;;13.57;9.40;;;;;;;;;;4288897;33;20108;-63
2021/12/23 07:25:12;;;;;;;14.98;9.38;;;;;;;;;;4289066;33;20118;-64
2021/12/23 07:27:40;;;;;;;14.18;9.60;;;;;;;;;;4289129;33;20450;-66
2021/12/23 07:30:07;;;;;;;13.85;9.30;;;;;;;;;;4288892;33;20088;-63
2021/12/23 07:32:33;;;;;;;15.52;9.80;;;;;;;;;;4289153;33;20193;-63
2021/12/23 07:34:59;;;;;;;16.37;9.52;;;;;;;;;;4288746;33;20190;-63
2021/12/23 07:37:25;;;;;;;17.02;10.93;;;;;;;;;;4288799;33;20123;-63
2021/12/23 07:39:54;;;;;;;16.20;10.90;;;;;;;;;;4275738;33;20516;-63
2021/12/23 07:42:20;;;;;;;16.20;10.65;;;;;;;;;;4288694;33;20122;-62
2021/12/23 07:44:47;;;;;;;13.02;9.48;;;;;;;;;;4288564;33;20099;-63
2021/12/23 07:47:14;;;;;;;15.82;10.68;;;;;;;;;;4288764;33;20116;-63
2021/12/23 07:49:41;;;;;;;15.15;10.20;;;;;;;;;;4288759;33;20104;-63
2021/12/23 07:52:08;;;;;;;13.60;10.02;;;;;;;;;;4288147;33;20546;-63
2021/12/23 07:54:35;;;;;;;14.60;9.95;;;;;;;;;;4275368;33;20179;-63
2021/12/23 07:57:02;;;;;;;13.27;9.80;;;;;;;;;;4288498;33;20122;-62
2021/12/23 07:59:28;;;;;;;12.05;9.35;;;;;;;;;;4275534;33;20134;-62
2021/12/23 08:01:57;;;;;;;18.02;9.43;;;;;;;;;;4288606;33;20167;-62
2021/12/23 08:04:24;;;;;;;14.60;10.50;;;;;;;;;;4288753;33;20116;-62
2021/12/23 08:06:55;;;;;;;13.32;9.82;;;;;;;;;;4288648;33;20096;-63
2021/12/23 08:09:22;;;;;;;14.23;10.40;;;;;;;;;;4288756;33;20131;-61
2021/12/23 08:11:49;;;;;;;12.35;9.30;;;;;;;;;;4288448;33;20111;-60
2021/12/23 08:14:15;;;;;;;11.70;8.77;;;;;;;;;;4275115;33;20103;-61
2021/12/23 08:16:42;;;;;;;12.13;8.32;;;;;;;;;;4288609;33;20185;-61
2021/12/23 08:19:09;;;;;;;10.43;8.40;;;;;;;;;;4288707;33;20133;-61
2021/12/23 08:21:35;;;;;;;14.13;8.90;;;;;;;;;;4288387;33;20452;-61
2021/12/23 08:24:02;;;;;;;14.27;9.70;;;;;;;;;;4288301;33;20185;-61
2021/12/23 08:26:29;;;;;;;11.27;9.20;;;;;;;;;;4288509;33;20088;-62
2021/12/23 08:28:56;;;;;;;11.20;8.75;;;;;;;;;;4288285;33;20127;-61
2021/12/23 08:31:23;;;;;;;14.38;8.95;;;;;;;;;;4288972;33;20088;-61
2021/12/23 08:33:49;;;;;;;10.95;8.93;;;;;;;;;;4290386;33;20116;-61
2021/12/23 08:36:16;;;;;;;10.63;8.25;;;;;;;;;;4290627;33;20118;-61
2021/12/23 08:38:43;;;;;;;14.32;9.10;;;;;;;;;;4290785;33;20142;-61
2021/12/23 08:41:10;;;;;;;10.85;8.82;;;;;;;;;;4290718;33;20110;-61
2021/12/23 08:43:36;;;;;;;13.27;8.30;;;;;;;;;;4290533;33;20107;-62
2021/12/23 08:46:02;;;;;;;9.95;8.48;;;;;;;;;;4290425;33;20467;-62
2021/12/23 08:48:29;;;;;;;12.60;8.60;;;;;;;;;;4290647;33;20111;-62
2021/12/23 08:50:55;;;;;;;14.98;8.77;;;;;;;;;;4290452;33;20109;-62
2021/12/23 08:53:21;;;;;;;10.77;8.13;;;;;;;;;;4290327;33;20503;-63
2021/12/23 08:55:47;;;;;;;11.63;8.23;;;;;;;;;;4289061;33;20194;-62
2021/12/23 08:58:13;;;;;;;13.30;8.85;;;;;;;;;;4290499;33;20180;-62
2021/12/23 09:00:40;;;;;;;11.95;8.30;;;;;;;;;;4290468;33;20464;-62
2021/12/23 09:03:07;;;;;;;17.23;10.52;;;;;;;;;;4290407;33;20130;-62
2021/12/23 09:05:35;;;;;;;15.90;9.02;;;;;;;;;;4290385;33;20103;-62
2021/12/23 09:08:01;;;;;;;11.05;8.15;;;;;;;;;;4290221;33;20523;-62
2021/12/23 09:10:27;;;;;;;10.23;7.50;;;;;;;;;;4290240;33;20119;-63
2021/12/23 09:12:54;;;;;;;11.18;8.50;;;;;;;;;;4290497;33;20115;-64
2021/12/23 09:15:20;;;;;;;12.02;7.95;;;;;;;;;;4290263;33;20107;-64
2021/12/23 09:17:47;;;;;;;13.60;8.85;;;;;;;;;;4290245;33;20235;-63
2021/12/23 09:20:14;;;;;;;10.57;7.90;;;;;;;;;;4290391;33;20477;-61
2021/12/23 09:22:41;;;;;;;10.80;8.65;;;;;;;;;;4290146;33;20523;-64
2021/12/23 09:25:12;;;;;;;9.60;8.07;;;;;;;;;;4290188;33;20510;-63
2021/12/23 09:33:10;;;;;;;10.30;7.85;;;;;;;;;;4290097;33;20112;-63
2021/12/23 09:35:37;;;;;;;9.85;8.23;;;;;;;;;;4290266;33;20107;-63
2021/12/23 09:38:04;;;;;;;9.75;7.82;;;;;;;;;;4290087;33;20103;-63
2021/12/23 09:40:32;;;;;;;10.40;7.68;;;;;;;;;;4290043;33;20211;-62
2021/12/23 09:43:00;;;;;;;9.52;7.47;;;;;;;;;;4289645;33;20562;-63
2021/12/23 09:45:26;;;;;;;13.98;12.48;;;;;;;;;;4290036;33;20175;-62
2021/12/23 09:47:53;;;;;;;12.55;8.38;;;;;;;;;;4290136;33;20092;-65
2021/12/23 09:50:22;;;;;;;11.38;7.93;;;;;;;;;;4289942;33;20571;-63
2021/12/23 09:52:50;;;;;;;9.02;7.28;;;;;;;;;;4290005;33;20124;-63
2021/12/23 09:55:19;;;;;;;9.13;7.32;;;;;;;;;;4289862;33;20543;-64
2021/12/23 09:57:47;;;;;;;9.25;6.62;;;;;;;;;;4290005;33;20464;-66
2021/12/23 10:00:15;;;;;;;7.82;6.40;;;;;;;;;;4284119;33;20103;-66
2021/12/23 10:02:42;;;;;;;8.15;6.85;;;;;;;;;;4290244;33;20289;-65
2021/12/23 10:05:10;;;;;;;7.80;6.87;;;;;;;;;;4289757;33;20100;-65
2021/12/23 10:07:37;;;;;;;8.40;6.37;;;;;;;;;;4288385;33;20103;-65
2021/12/23 10:10:11;;;;;;;9.70;6.90;;;;;;;;;;4276665;33;20106;-66
2021/12/23 10:32:34;;;;;;;8.48;6.43;;;;;;;;;;4284699;33;20098;-64
2021/12/23 10:38:13;;;;;;;10.10;6.70;;;;;;;;;;4289618;33;20554;-64
2021/12/23 10:40:43;;;;;;;7.15;6.22;;;;;;;;;;4289462;33;20122;-65
2021/12/23 10:43:12;;;;;;;7.60;6.25;;;;;;;;;;4289586;33;20460;-64
2021/12/23 10:45:50;;;;;;;7.50;5.78;;;;;;;;;;4276305;33;20115;-64
2021/12/23 10:48:17;;;;;;;8.13;6.53;;;;;;;;;;4289697;33;20119;-65
2021/12/23 10:50:48;;;;;;;8.45;6.40;;;;;;;;;;4289419;33;20159;-64
2021/12/23 10:54:21;;;;;;;8.20;7.03;;;;;;;;;;4289261;33;20114;-62
2021/12/23 10:59:23;;;;;;;;;;;;;;;;;;4289992;33;20192;-63
2021/12/23 11:02:06;;;;;;;8.10;7.18;;;;;;;;;;4289595;33;19987;-62
2021/12/23 11:04:49;;;;;;;9.05;7.12;;;;;;;;;;4288247;33;20080;-63
2021/12/23 11:07:26;;;;;;;8.82;6.65;;;;;;;;;;4283898;33;20123;-60
2021/12/23 11:10:09;;;;;;;8.35;6.55;;;;;;;;;;4289394;33;20110;-62
2021/12/23 11:37:51;;;;;;;9.45;7.18;;;;;;;;;;4284183;33;20521;-62
2021/12/23 11:45:33;;;;;;;15.75;11.10;;;;;;;;;;4288952;33;20084;-69
2021/12/23 11:48:04;;;;;;;18.87;12.13;;;;;;;;;;4263759;33;20205;-68
2021/12/23 11:50:41;;;;;;;12.00;8.85;;;;;;;;;;4275428;33;20120;-67
2021/12/23 11:53:08;;;;;;;10.05;7.60;;;;;;;;;;4288869;33;20118;-67
2021/12/23 11:55:35;;;;;;;12.75;9.15;;;;;;;;;;4288674;33;20131;-67
2021/12/23 11:58:02;;;;;;;11.30;7.78;;;;;;;;;;4288812;33;20101;-67
2021/12/23 12:00:41;;;;;;;10.25;7.37;;;;;;;;;;4274665;33;20191;-67
2021/12/23 12:03:08;;;;;;;7.82;6.15;;;;;;;;;;4288767;33;20134;-67
2021/12/23 12:05:35;;;;;;;6.78;6.07;;;;;;;;;;4276304;33;20146;-67
2021/12/23 12:08:10;;;;;;;7.53;5.97;;;;;;;;;;4277213;33;20132;-67
2021/12/23 12:10:38;;;;;;;8.07;6.12;;;;;;;;;;4290778;33;20202;-67
2021/12/23 12:13:08;;;;;;;8.73;6.35;;;;;;;;;;4277698;33;20091;-68
2021/12/23 12:15:41;;;;;;;8.55;6.35;;;;;;;;;;4275641;33;20107;-69
2021/12/23 12:18:12;;;;;;;9.48;6.93;;;;;;;;;;4288559;33;20135;-68
2021/12/23 12:20:52;;;;;;;11.38;8.27;;;;;;;;;;4285480;33;20204;-68
2021/12/23 12:23:39;;;;;;;10.88;8.07;;;;;;;;;;4290543;33;20123;-67
2021/12/23 12:26:09;;;;;;;11.45;9.57;;;;;;;;;;4276800;33;20542;-66
2021/12/23 12:28:38;;;;;;;12.55;10.43;;;;;;;;;;4285529;33;20181;-67
2021/12/23 12:31:13;;;;;;;11.43;9.52;;;;;;;;;;4272371;33;20437;-66
2021/12/23 12:33:53;;;;;;;9.85;8.02;;;;;;;;;;4276157;33;20118;-67
2021/12/23 12:36:20;;;;;;;10.88;8.52;;;;;;;;;;4287912;33;20111;-70
2021/12/23 12:38:58;;;;;;;8.43;7.12;;;;;;;;;;4290319;33;20130;-68
2021/12/23 12:41:24;;;;;;;10.75;8.50;;;;;;;;;;4304920;33;20197;-66
2021/12/23 12:43:55;;;;;;;9.07;7.20;;;;;;;;;;4305012;33;20214;-67
2021/12/23 12:46:46;;;;;;;7.95;6.80;;;;;;;;;;4305053;33;20171;-65
2021/12/23 12:49:22;;;;;;;8.93;6.07;;;;;;;;;;4299022;33;20450;-68
2021/12/23 12:51:49;;;;;;;8.82;7.32;;;;;;;;;;4294447;33;20594;-70
2021/12/23 12:54:29;;;;;;;8.98;7.12;;;;;;;;;;4286056;33;20214;-67
2021/12/23 12:56:58;;;;;;;14.60;10.60;;;;;;;;;;4276890;33;20551;-67
2021/12/23 12:59:27;;;;;;;13.62;10.75;;;;;;;;;;4264554;33;20091;-67
2021/12/23 13:01:54;;;;;;;17.30;12.75;;;;;;;;;;4276656;33;20211;-67
2021/12/23 13:04:32;;;;;;;12.75;10.63;;;;;;;;;;4276314;33;20111;-68
2021/12/23 13:07:14;;;;;;;10.93;9.35;;;;;;;;;;4290381;33;20087;-68
2021/12/23 13:10:17;;;;;;;10.18;8.00;;;;;;;;;;4284867;33;20106;-68
2021/12/23 13:13:05;;;;;;;13.02;10.30;;;;;;;;;;4284944;33;20100;-68
2021/12/23 13:15:34;;;;;;;11.07;8.50;;;;;;;;;;4277144;33;20159;-67
2021/12/23 13:18:08;;;;;;;9.52;7.97;;;;;;;;;;4289704;33;20130;-68
2021/12/23 13:20:44;;;;;;;9.13;7.22;;;;;;;;;;4276939;33;20452;-64
2021/12/23 13:23:23;;;;;;;10.48;7.30;;;;;;;;;;4291265;33;20202;-73
2021/12/23 13:25:55;;;;;;;11.70;7.60;;;;;;;;;;4291230;33;20115;-68
2021/12/23 13:28:24;;;;;;;10.18;8.07;;;;;;;;;;4266180;33;20435;-68
2021/12/23 13:30:50;;;;;;;10.73;9.15;;;;;;;;;;4265646;33;20110;-69
2021/12/23 13:33:16;;;;;;;12.15;9.02;;;;;;;;;;4290362;33;20093;-65
2021/12/23 13:35:44;;;;;;;10.30;8.82;;;;;;;;;;4290053;33;20126;-68
2021/12/23 13:38:26;;;;;;;13.35;10.63;;;;;;;;;;4290562;33;20111;-69
2021/12/23 13:40:52;;;;;;;11.98;9.77;;;;;;;;;;4276425;33;20107;-68
2021/12/23 13:43:29;;;;;;;10.15;8.27;;;;;;;;;;4276841;33;20145;-68
2021/12/23 13:46:05;;;;;;;11.38;9.68;;;;;;;;;;4289891;33;20128;-68
2021/12/23 13:48:31;;;;;;;12.23;8.93;;;;;;;;;;4290124;33;20138;-68
2021/12/23 13:50:58;;;;;;;10.85;7.82;;;;;;;;;;4289859;33;20107;-65
2021/12/23 13:53:24;;;;;;;11.93;7.65;;;;;;;;;;4264586;33;20130;-66
2021/12/23 13:55:50;;;;;;;9.57;7.62;;;;;;;;;;4289816;33;20200;-66
2021/12/23 13:58:26;;;;;;;9.82;7.72;;;;;;;;;;4289767;33;20139;-67
2021/12/23 14:00:52;;;;;;;12.60;9.77;;;;;;;;;;4277157;33;20092;-67
2021/12/23 14:03:19;;;;;;;13.95;10.00;;;;;;;;;;4289994;33;20101;-68
2021/12/23 14:05:49;;;;;;;17.83;11.88;;;;;;;;;;4275749;33;20450;-69
2021/12/23 14:08:17;;;;;;;16.83;13.52;;;;;;;;;;4264197;33;20135;-69
2021/12/23 14:10:44;;;;;;;13.77;9.30;;;;;;;;;;4275451;33;20828;-69
2021/12/23 14:13:15;;;;;;;13.32;9.25;;;;;;;;;;4275107;33;20526;-69
2021/12/23 14:15:44;;;;;;;11.70;8.35;;;;;;;;;;4286618;33;20213;-69
2021/12/23 14:23:50;;;;;;;12.15;8.63;;;;;;;;;;4277146;33;20906;-69
2021/12/23 14:26:17;;;;;;;9.18;7.37;;;;;;;;;;4272786;33;20112;-69
2021/12/23 14:28:48;;;;;;;10.98;8.88;;;;;;;;;;4274183;33;20096;-69
2021/12/23 14:31:25;;;;;;;14.77;8.18;;;;;;;;;;4273982;33;20091;-70
2021/12/23 14:33:56;;;;;;;9.48;7.53;;;;;;;;;;4248921;33;20131;-70
2021/12/23 14:36:29;;;;;;;10.65;8.00;;;;;;;;;;4260567;33;20100;-70
2021/12/23 14:38:58;;;;;;;10.68;8.07;;;;;;;;;;4260860;33;20142;-71
2021/12/23 14:41:26;;;;;;;8.73;7.78;;;;;;;;;;4248988;33;20100;-70
2021/12/23 14:43:53;;;;;;;9.25;7.65;;;;;;;;;;4261016;33;20119;-70
2021/12/23 14:46:38;;;;;;;14.55;10.80;;;;;;;;;;4261767;33;20726;-71
2021/12/23 14:52:15;;;;;;;10.43;8.02;;;;;;;;;;4275075;33;21148;-70
2021/12/23 14:54:47;;;;;;;11.67;7.97;;;;;;;;;;4271913;33;20111;-70
2021/12/23 14:57:16;;;;;;;8.95;7.60;;;;;;;;;;4288025;33;20638;-70
2021/12/23 14:59:47;;;;;;;11.68;8.48;;;;;;;;;;4276620;33;20183;-70
2021/12/23 15:02:16;;;;;;;11.98;8.98;;;;;;;;;;4275908;33;20117;-71
2021/12/23 15:05:02;;;;;;;11.32;8.13;;;;;;;;;;4289323;33;20096;-71
2021/12/23 15:07:48;;;;;;;12.30;8.43;;;;;;;;;;4264049;33;20123;-72
2021/12/23 15:10:29;;;;;;;16.23;12.10;;;;;;;;;;4270520;33;20189;-71
2021/12/23 15:12:55;;;;;;;16.83;12.00;;;;;;;;;;4275774;33;20663;-70
2021/12/23 15:15:21;;;;;;;12.88;9.93;;;;;;;;;;4275722;33;20182;-71
2021/12/23 15:17:54;;;;;;;10.32;8.07;;;;;;;;;;4264104;33;20103;-71
2021/12/23 15:20:30;;;;;;;10.45;7.10;;;;;;;;;;4276598;33;20203;-72
2021/12/23 15:23:01;;;;;;;8.85;6.90;;;;;;;;;;4276436;33;20092;-71
2021/12/23 15:25:38;;;;;;;10.05;6.97;;;;;;;;;;4275677;33;20206;-70
2021/12/23 15:28:06;;;;;;;8.63;7.07;;;;;;;;;;4275944;33;20127;-70
2021/12/23 15:30:33;;;;;;;10.45;7.50;;;;;;;;;;4289057;33;20094;-70
2021/12/23 15:33:01;;;;;;;9.05;7.45;;;;;;;;;;4275834;33;20246;-72
2021/12/23 15:35:31;;;;;;;10.25;7.10;;;;;;;;;;4275509;33;20637;-71
2021/12/23 15:38:02;;;;;;;10.18;7.62;;;;;;;;;;4288971;33;20118;-71
2021/12/23 15:40:36;;;;;;;10.82;7.47;;;;;;;;;;4275385;33;20108;-71
2021/12/23 15:43:10;;;;;;;10.00;7.12;;;;;;;;;;4275946;33;20095;-71
2021/12/23 15:45:38;;;;;;;9.95;7.12;;;;;;;;;;4275634;33;20103;-71
2021/12/23 15:48:06;;;;;;;11.40;7.10;;;;;;;;;;4275802;33;20118;-72
2021/12/23 15:50:33;;;;;;;8.68;7.37;;;;;;;;;;4275484;33;20111;-72
2021/12/23 15:53:00;;;;;;;9.70;7.07;;;;;;;;;;4263625;33;20195;-73
2021/12/23 15:55:27;;;;;;;10.68;7.10;;;;;;;;;;4287274;33;20283;-72
2021/12/23 15:57:54;;;;;;;8.63;6.82;;;;;;;;;;4275380;33;20507;-75
2021/12/23 16:00:21;;;;;;;11.35;6.50;;;;;;;;;;4288806;33;20172;-71
2021/12/23 16:02:49;;;;;;;10.10;6.53;;;;;;;;;;4274881;33;20124;-71
2021/12/23 16:07:46;;;;;;;8.90;6.35;;;;;;;;;;4274466;33;20103;-72
2021/12/23 16:10:18;;;;;;;9.00;6.12;;;;;;;;;;4288726;33;20520;-73
2021/12/23 16:12:44;;;;;;;8.65;6.50;;;;;;;;;;4275279;33;20102;-73
2021/12/23 16:15:13;;;;;;;10.38;6.75;;;;;;;;;;4272941;33;20628;-72
2021/12/23 16:17:42;;;;;;;9.20;6.32;;;;;;;;;;4272100;33;20103;-71
2021/12/23 16:20:09;;;;;;;9.88;6.40;;;;;;;;;;4275225;33;20111;-68
2021/12/23 16:22:35;;;;;;;11.77;8.57;;;;;;;;;;4275238;33;20107;-67
2021/12/23 16:25:02;;;;;;;15.60;8.80;;;;;;;;;;4288518;33;20163;-66
2021/12/23 16:27:29;;;;;;;13.77;9.43;;;;;;;;;;4275060;33;20127;-69